Fruita, Colorado
Current Conditions -  °F | °C
As of 8:53 AM on Thursday 23 Oct 2014 (Local Time) from KGJT Reporting Station
Clear Clear  
Wind Chill: 45°   Ceiling: Unl
Heat Index: 48°   Visibility: 10mi
Dew Point: 39°   Wind: 6mph
Humidity: 71%   Direction: 130°SE
Pressure: 30.27"   Gusts: NA
Location:  39.16°N, 108.73°W
Report Text: KGJT 231453Z 13005KT 10SM CLR 09/04 A3027 RMK AO2 SLP226 T00890039 53014
Loading
Personal Weather Stations






























Interactive Weather Map
Tropical Storm Tracking
New forecast layout! Learn more

10-Day Weather Forecast

Advertisements
Track Severe Weather on mobile